createdAt,value
2023-02-15T00:02:03.952Z,103.75
2023-02-15T00:04:46.957Z,96.10
2023-02-15T00:07:18.785Z,105.93
2023-02-15T00:09:47.540Z,96.30
2023-02-15T00:12:15.596Z,94.13
2023-02-15T00:14:43.159Z,94.72
2023-02-15T00:17:10.465Z,90.93
2023-02-15T00:19:37.797Z,95.30
2023-02-15T00:22:04.976Z,101.25
2023-02-15T00:24:32.189Z,95.65
2023-02-15T00:26:59.528Z,101.72
2023-02-15T00:29:27.195Z,107.07
2023-02-15T00:31:54.432Z,101.03
2023-02-15T00:34:27.558Z,97.05
2023-02-15T00:36:54.782Z,111.35
2023-02-15T00:39:22.299Z,97.68
2023-02-15T00:41:49.477Z,99.43
2023-02-15T00:44:17.038Z,102.90
2023-02-15T00:46:44.278Z,102.50
2023-02-15T00:49:11.795Z,97.95
2023-02-15T00:51:40.357Z,103.53
2023-02-15T00:54:08.156Z,105.80
2023-02-15T00:56:35.460Z,102.33
2023-02-15T00:59:03.116Z,105.03
2023-02-15T01:01:30.354Z,102.20
2023-02-15T01:03:57.800Z,109.15
2023-02-15T01:06:25.079Z,110.28
2023-02-15T01:08:52.337Z,105.05
2023-02-15T01:11:25.171Z,100.00
2023-02-15T01:13:55.688Z,100.93
2023-02-15T01:16:25.125Z,96.70
2023-02-15T01:18:52.506Z,105.03
2023-02-15T01:21:22.957Z,101.68
2023-02-15T01:23:50.332Z,105.13
2023-02-15T01:26:17.965Z,103.07
2023-02-15T01:28:46.092Z,104.22
2023-02-15T01:31:16.471Z,105.20
2023-02-15T01:33:46.430Z,100.40
2023-02-15T01:36:13.876Z,102.18
2023-02-15T01:38:41.366Z,102.22
2023-02-15T01:41:21.203Z,121.13
2023-02-15T01:43:57.824Z,132.70
2023-02-15T01:46:38.480Z,126.28
2023-02-15T01:49:15.784Z,131.75
2023-02-15T01:51:45.821Z,111.38
2023-02-15T01:54:22.095Z,112.93
2023-02-15T01:56:49.562Z,109.05
2023-02-15T01:59:21.620Z,107.17
2023-02-15T02:01:53.228Z,101.82
2023-02-15T02:04:38.762Z,102.73
2023-02-15T02:07:08.139Z,101.28
2023-02-15T02:09:36.658Z,90.13
2023-02-15T02:12:04.140Z,93.20
2023-02-15T02:14:31.675Z,90.28
2023-02-15T02:17:13.226Z,92.18
2023-02-15T02:20:02.369Z,98.47
2023-02-15T02:23:00.357Z,96.83
2023-02-15T02:25:51.977Z,96.23
2023-02-15T02:28:49.455Z,109.95
2023-02-15T02:31:47.682Z,93.25
2023-02-15T02:34:20.053Z,104.03
2023-02-15T02:37:38.466Z,94.03
2023-02-15T02:40:09.001Z,89.45
2023-02-15T02:42:41.231Z,85.55
2023-02-15T02:45:11.411Z,91.43
2023-02-15T02:47:48.596Z,102.22
2023-02-15T02:50:19.099Z,108.77
2023-02-15T02:52:48.767Z,95.70
2023-02-15T02:55:22.497Z,97.30
2023-02-15T02:57:54.572Z,90.97
2023-02-15T03:00:24.422Z,98.35
2023-02-15T03:02:56.698Z,86.90
2023-02-15T03:05:27.407Z,90.90
2023-02-15T03:07:57.856Z,88.35
2023-02-15T03:10:26.091Z,84.32
2023-02-15T03:12:55.166Z,87.68
2023-02-15T03:15:26.186Z,89.35
2023-02-15T03:18:03.661Z,80.63
2023-02-15T03:20:35.251Z,80.15
2023-02-15T03:23:11.894Z,79.90
2023-02-15T03:25:42.915Z,81.82
2023-02-15T03:28:16.491Z,77.43
2023-02-15T03:30:47.623Z,87.72
2023-02-15T03:33:15.966Z,78.93
2023-02-15T03:35:52.474Z,79.57
2023-02-15T03:38:26.598Z,84.85
2023-02-15T03:41:12.555Z,82.07
2023-02-15T03:43:51.695Z,82.72
2023-02-15T03:46:28.961Z,86.25
2023-02-15T03:49:07.959Z,88.00
2023-02-15T03:51:39.115Z,89.68
2023-02-15T03:54:14.470Z,89.35
2023-02-15T03:57:03.208Z,89.47
2023-02-15T03:59:49.158Z,89.43
2023-02-15T04:02:24.488Z,88.63
2023-02-15T04:04:51.641Z,92.13
2023-02-15T04:07:18.855Z,90.57
2023-02-15T04:10:24.214Z,91.35
2023-02-15T04:12:51.367Z,92.68
2023-02-15T04:15:37.170Z,88.90
2023-02-15T04:18:05.012Z,90.50
2023-02-15T04:20:51.088Z,91.95
2023-02-15T04:23:37.060Z,90.75
2023-02-15T04:26:07.332Z,93.25
2023-02-15T04:28:37.036Z,92.17
2023-02-15T04:31:04.225Z,95.18
2023-02-15T04:33:31.399Z,91.03
2023-02-15T04:35:58.610Z,85.90
2023-02-15T04:38:25.787Z,89.78
2023-02-15T04:40:53.675Z,90.75
2023-02-15T04:43:21.176Z,97.95
2023-02-15T04:45:50.475Z,99.35
2023-02-15T04:48:18.643Z,96.78
2023-02-15T04:50:46.017Z,90.73
2023-02-15T04:53:13.535Z,94.73
2023-02-15T04:55:40.760Z,103.40
2023-02-15T04:58:07.968Z,97.63
2023-02-15T05:00:35.112Z,96.90
2023-02-15T05:03:02.322Z,100.20
2023-02-15T05:05:29.465Z,102.32
2023-02-15T05:07:56.586Z,96.20
2023-02-15T05:10:23.795Z,99.33
2023-02-15T05:12:50.967Z,104.10
2023-02-15T05:15:18.248Z,99.65
2023-02-15T05:17:45.376Z,106.40
2023-02-15T05:20:12.644Z,99.18
2023-02-15T05:22:41.688Z,99.93
2023-02-15T05:25:28.535Z,102.32
2023-02-15T05:28:14.603Z,96.23
2023-02-15T05:30:42.121Z,95.57
2023-02-15T05:33:09.615Z,91.30
2023-02-15T05:35:36.798Z,95.22
2023-02-15T05:38:04.023Z,94.70
2023-02-15T05:40:31.173Z,97.47
2023-02-15T05:42:58.685Z,92.35
2023-02-15T05:45:26.166Z,92.20
2023-02-15T05:47:53.370Z,91.72
2023-02-15T05:50:20.642Z,98.40
2023-02-15T05:52:48.151Z,98.32
2023-02-15T05:55:15.703Z,95.38
2023-02-15T05:57:42.960Z,99.72
2023-02-15T06:00:10.865Z,97.57
2023-02-15T06:02:41.363Z,95.57
2023-02-15T06:05:08.758Z,95.55
2023-02-15T06:07:36.037Z,97.13
2023-02-15T06:10:04.081Z,97.43
2023-02-15T06:12:31.756Z,95.55
2023-02-15T06:14:58.972Z,87.60
2023-02-15T06:17:26.153Z,94.50
2023-02-15T06:19:53.301Z,96.85
2023-02-15T06:22:21.265Z,87.28
2023-02-15T06:24:48.503Z,90.63
2023-02-15T06:27:15.748Z,99.00
2023-02-15T06:29:42.902Z,90.22
2023-02-15T06:32:10.170Z,92.60
2023-02-15T06:34:37.428Z,93.30
2023-02-15T06:37:04.625Z,92.55
2023-02-15T06:39:32.503Z,88.80
2023-02-15T06:41:59.700Z,90.72
2023-02-15T06:44:27.031Z,86.90
2023-02-15T06:46:54.411Z,83.88
2023-02-15T06:49:21.591Z,88.43
2023-02-15T06:51:48.811Z,86.50
2023-02-15T06:54:16.036Z,83.67
2023-02-15T06:56:44.513Z,89.55
2023-02-15T06:59:11.822Z,86.97
2023-02-15T07:01:39.169Z,88.25
2023-02-15T07:04:06.532Z,78.68
2023-02-15T07:06:34.572Z,83.95
2023-02-15T07:09:02.052Z,82.30
2023-02-15T07:11:52.791Z,81.50
2023-02-15T07:14:20.017Z,85.32
2023-02-15T07:16:47.266Z,79.28
2023-02-15T07:19:14.534Z,84.38
2023-02-15T07:21:41.699Z,82.75
2023-02-15T07:24:08.830Z,83.57
2023-02-15T07:26:36.012Z,82.55
2023-02-15T07:29:03.580Z,85.85
2023-02-15T07:31:30.768Z,81.80
2023-02-15T07:33:57.975Z,82.93
2023-02-15T07:36:25.196Z,74.57
2023-02-15T07:38:52.426Z,75.15
2023-02-15T07:41:19.644Z,77.93
2023-02-15T07:43:46.892Z,76.83
2023-02-15T07:46:16.511Z,79.20
2023-02-15T07:48:44.440Z,80.03
2023-02-15T07:51:12.955Z,80.20
2023-02-15T07:53:40.250Z,74.00
2023-02-15T07:56:12.453Z,76.30
2023-02-15T07:58:51.666Z,80.93
2023-02-15T08:01:36.140Z,73.95
2023-02-15T08:04:06.543Z,79.43
2023-02-15T08:06:36.115Z,80.00
2023-02-15T08:09:10.372Z,77.65
2023-02-15T08:11:40.181Z,72.32
2023-02-15T08:14:11.349Z,73.30
2023-02-15T08:16:50.536Z,74.43
2023-02-15T08:19:25.126Z,71.03
2023-02-15T08:22:13.763Z,70.32
2023-02-15T08:24:42.068Z,74.35
2023-02-15T08:27:11.935Z,74.63
2023-02-15T08:29:40.346Z,65.27
2023-02-15T08:32:11.233Z,62.70
2023-02-15T08:34:42.752Z,63.05
2023-02-15T08:37:10.451Z,56.60
2023-02-15T08:39:37.800Z,56.37
2023-02-15T08:42:05.369Z,54.93
2023-02-15T08:44:32.633Z,54.08
2023-02-15T08:47:04.720Z,49.87
2023-02-15T08:49:32.397Z,50.60
2023-02-15T08:52:00.558Z,38.73
2023-02-15T08:54:27.825Z,39.03
2023-02-15T08:56:55.218Z,38.03
2023-02-15T08:59:24.076Z,38.00
2023-02-15T09:01:52.838Z,38.30
2023-02-15T09:04:21.490Z,35.42
2023-02-15T09:06:49.850Z,40.60
2023-02-15T09:09:18.385Z,37.57
2023-02-15T09:11:48.153Z,37.72
2023-02-15T09:14:25.445Z,39.33
2023-02-15T09:16:53.910Z,34.85
2023-02-15T09:19:23.383Z,41.25
2023-02-15T09:21:51.208Z,40.35
2023-02-15T09:24:18.654Z,42.47
2023-02-15T09:26:48.482Z,41.33
2023-02-15T09:29:17.541Z,34.67
2023-02-15T09:31:47.850Z,37.63
2023-02-15T09:34:18.032Z,40.63
2023-02-15T09:36:45.761Z,37.05
2023-02-15T09:39:15.941Z,37.40
2023-02-15T09:41:55.016Z,39.10
2023-02-15T09:44:40.812Z,39.50
2023-02-15T09:47:08.644Z,36.85
2023-02-15T09:49:47.510Z,39.50
2023-02-15T09:52:32.473Z,39.70
2023-02-15T09:55:14.661Z,40.63
2023-02-15T09:58:03.559Z,39.53
2023-02-15T10:00:57.136Z,40.60
2023-02-15T10:03:39.106Z,39.20
2023-02-15T10:06:48.378Z,38.40
2023-02-15T10:09:25.992Z,38.80
2023-02-15T10:12:17.507Z,39.15
2023-02-15T10:15:12.524Z,40.38
2023-02-15T10:18:01.196Z,41.78
2023-02-15T10:20:53.250Z,39.13
2023-02-15T10:23:23.273Z,39.78
2023-02-15T10:26:15.021Z,40.13
2023-02-15T10:28:52.409Z,42.70
2023-02-15T10:31:22.662Z,42.25
2023-02-15T10:34:02.871Z,36.60
2023-02-15T10:36:42.093Z,38.08
2023-02-15T10:39:39.252Z,37.97
2023-02-15T10:42:30.561Z,39.85
2023-02-15T10:45:11.390Z,35.65
2023-02-15T10:47:57.188Z,33.53
2023-02-15T10:50:36.863Z,37.58
2023-02-15T10:53:15.966Z,36.80
2023-02-15T10:56:12.571Z,40.90
2023-02-15T10:58:57.338Z,35.88
2023-02-15T11:01:55.510Z,37.78
2023-02-15T11:04:52.419Z,36.75
2023-02-15T11:07:23.645Z,37.42
2023-02-15T11:09:57.628Z,36.35
2023-02-15T11:12:28.115Z,39.05
2023-02-15T11:15:04.688Z,39.25
2023-02-15T11:17:51.483Z,38.63
2023-02-15T11:20:49.963Z,39.95
2023-02-15T11:23:19.308Z,40.70
2023-02-15T11:25:52.584Z,38.80
2023-02-15T11:28:29.876Z,40.22
2023-02-15T11:30:59.011Z,40.45
2023-02-15T11:33:31.890Z,39.95
2023-02-15T11:36:05.027Z,37.67
2023-02-15T11:38:35.821Z,38.97
2023-02-15T11:41:12.840Z,39.33
2023-02-15T11:43:49.677Z,36.58
2023-02-15T11:46:16.943Z,37.47
2023-02-15T11:48:44.361Z,39.25
2023-02-15T11:51:23.759Z,41.20
2023-02-15T11:53:52.222Z,38.63
2023-02-15T11:56:22.883Z,41.92
2023-02-15T11:58:59.514Z,40.97
2023-02-15T12:01:33.888Z,39.55
2023-02-15T12:04:24.814Z,40.88
2023-02-15T12:07:29.574Z,39.85
2023-02-15T12:10:21.005Z,40.90
2023-02-15T12:13:11.797Z,43.47
2023-02-15T12:15:47.379Z,43.17
2023-02-15T12:18:40.097Z,43.00
2023-02-15T12:21:36.854Z,45.55
2023-02-15T12:24:19.319Z,43.05
2023-02-15T12:26:58.413Z,42.60
2023-02-15T12:29:31.351Z,48.08
2023-02-15T12:31:59.709Z,45.58
2023-02-15T12:34:32.971Z,42.07
2023-02-15T12:37:09.907Z,41.90
2023-02-15T12:39:37.205Z,44.28
2023-02-15T12:42:15.028Z,43.80
2023-02-15T12:44:55.182Z,45.47
2023-02-15T12:47:28.918Z,42.63
2023-02-15T12:50:18.284Z,44.78
2023-02-15T12:52:49.189Z,46.03
2023-02-15T12:55:31.057Z,44.85
2023-02-15T12:58:15.507Z,41.93
2023-02-15T13:00:42.738Z,43.53
2023-02-15T13:03:22.567Z,43.30
2023-02-15T13:05:54.169Z,42.38
2023-02-15T13:08:28.155Z,43.03
2023-02-15T13:11:04.341Z,44.63
2023-02-15T13:13:35.455Z,46.30
2023-02-15T13:16:11.796Z,44.67
2023-02-15T13:18:43.556Z,48.13
2023-02-15T13:21:13.513Z,45.10
2023-02-15T13:23:46.920Z,49.07
2023-02-15T13:26:19.745Z,47.53
2023-02-15T13:28:50.590Z,44.00
2023-02-15T13:31:24.687Z,43.07
2023-02-15T13:34:18.052Z,47.45
2023-02-15T13:37:13.235Z,45.50
2023-02-15T13:40:01.577Z,45.65
2023-02-15T13:42:41.471Z,46.90
2023-02-15T13:45:27.001Z,46.25
2023-02-15T13:48:01.925Z,49.95
2023-02-15T13:50:50.671Z,42.38
2023-02-15T13:53:39.780Z,46.88
2023-02-15T13:56:39.832Z,47.05
2023-02-15T13:59:41.343Z,47.83
2023-02-15T14:02:29.423Z,45.67
2023-02-15T14:05:37.210Z,49.30
2023-02-15T14:08:34.050Z,50.25
2023-02-15T14:11:33.322Z,46.50
2023-02-15T14:14:41.562Z,49.42
2023-02-15T14:17:16.197Z,49.17
2023-02-15T14:19:55.227Z,47.80
2023-02-15T14:22:47.969Z,51.63
2023-02-15T14:25:22.975Z,48.20
2023-02-15T14:28:05.158Z,49.70
2023-02-15T14:30:38.831Z,47.95
2023-02-15T14:33:08.229Z,47.47
2023-02-15T14:35:38.064Z,45.83
2023-02-15T14:38:24.681Z,46.35
2023-02-15T14:41:05.612Z,48.83
2023-02-15T14:43:48.330Z,46.38
2023-02-15T14:46:31.035Z,45.78
2023-02-15T14:49:23.522Z,44.65
2023-02-15T14:51:51.102Z,49.05
2023-02-15T14:54:18.291Z,45.78
2023-02-15T14:56:47.327Z,51.35
2023-02-15T14:59:21.666Z,50.45
2023-02-15T15:02:16.209Z,45.42
2023-02-15T15:05:09.403Z,46.55
2023-02-15T15:07:46.559Z,44.77
2023-02-15T15:10:20.754Z,46.00
2023-02-15T15:12:49.945Z,46.70
2023-02-15T15:15:30.505Z,46.53
2023-02-15T15:18:06.363Z,50.67
2023-02-15T15:20:42.787Z,44.30
2023-02-15T15:23:15.981Z,51.35
2023-02-15T15:25:52.790Z,48.80
2023-02-15T15:28:35.103Z,44.85
2023-02-15T15:31:20.906Z,45.55
2023-02-15T15:34:11.443Z,47.95
2023-02-15T15:37:06.349Z,45.97
2023-02-15T15:40:23.514Z,48.20
2023-02-15T15:42:59.940Z,49.05
2023-02-15T15:45:36.305Z,45.50
2023-02-15T15:48:13.790Z,46.85
2023-02-15T15:50:42.453Z,49.10
2023-02-15T15:53:22.078Z,44.90
2023-02-15T15:55:55.085Z,49.33
2023-02-15T15:58:23.402Z,45.65
2023-02-15T16:00:57.986Z,46.28
2023-02-15T16:03:28.694Z,47.23
2023-02-15T16:05:57.135Z,48.08
2023-02-15T16:08:39.990Z,43.95
2023-02-15T16:11:26.299Z,48.38
2023-02-15T16:13:54.306Z,45.17
2023-02-15T16:16:30.379Z,47.15
2023-02-15T16:19:00.379Z,46.53
2023-02-15T16:21:34.488Z,47.53
2023-02-15T16:24:18.515Z,48.92
2023-02-15T16:26:57.891Z,45.03
2023-02-15T16:29:32.248Z,46.27
2023-02-15T16:32:26.397Z,49.75
2023-02-15T16:35:02.965Z,47.35
2023-02-15T16:37:35.330Z,51.08
2023-02-15T16:40:02.860Z,49.85
2023-02-15T16:42:30.137Z,48.58
2023-02-15T16:45:25.488Z,48.33
2023-02-15T16:47:58.073Z,50.10
2023-02-15T16:50:31.589Z,51.42
2023-02-15T16:52:59.231Z,46.83
2023-02-15T16:55:36.012Z,50.83
2023-02-15T16:58:05.961Z,47.13
2023-02-15T17:00:37.783Z,50.50
2023-02-15T17:03:23.986Z,50.55
2023-02-15T17:05:57.549Z,49.15
2023-02-15T17:08:37.822Z,49.08
2023-02-15T17:11:05.465Z,52.85
2023-02-15T17:13:33.016Z,51.73
2023-02-15T17:16:00.497Z,54.78
2023-02-15T17:18:30.928Z,52.45
2023-02-15T17:21:01.412Z,49.60
2023-02-15T17:23:36.102Z,52.42
2023-02-15T17:26:23.545Z,50.35
2023-02-15T17:28:54.902Z,52.28
2023-02-15T17:31:24.946Z,55.35
2023-02-15T17:33:55.282Z,52.53
2023-02-15T17:36:24.452Z,53.70
2023-02-15T17:39:00.617Z,53.63
2023-02-15T17:41:33.667Z,50.20
2023-02-15T17:44:02.419Z,49.15
2023-02-15T17:46:35.415Z,52.13
2023-02-15T17:49:05.200Z,53.33
2023-02-15T17:51:35.764Z,53.15
2023-02-15T17:54:22.124Z,50.73
2023-02-15T17:56:49.267Z,50.35
2023-02-15T17:59:16.538Z,54.63
2023-02-15T18:02:05.664Z,50.45
2023-02-15T18:04:53.799Z,52.90
2023-02-15T18:07:39.777Z,51.70
2023-02-15T18:10:34.106Z,53.72
2023-02-15T18:13:01.352Z,53.03
2023-02-15T18:15:28.890Z,47.97
2023-02-15T18:17:56.503Z,50.60
2023-02-15T18:20:32.744Z,53.60
2023-02-15T18:23:01.925Z,52.17
2023-02-15T18:25:29.272Z,50.87
2023-02-15T18:27:56.845Z,54.17
2023-02-15T18:30:26.692Z,50.70
2023-02-15T18:32:57.198Z,48.10
2023-02-15T18:35:30.028Z,48.83
2023-02-15T18:37:59.741Z,48.08
2023-02-15T18:40:28.699Z,57.40
2023-02-15T18:42:57.136Z,52.63
2023-02-15T18:45:32.945Z,52.55
2023-02-15T18:48:00.400Z,53.38
2023-02-15T18:50:30.988Z,51.72
2023-02-15T18:52:58.296Z,52.97
2023-02-15T18:55:32.444Z,52.07
2023-02-15T18:58:01.026Z,52.47
2023-02-15T19:00:33.693Z,53.30
2023-02-15T19:03:04.864Z,53.25
2023-02-15T19:05:32.921Z,47.90
2023-02-15T19:08:01.764Z,45.55
2023-02-15T19:10:31.357Z,53.03
2023-02-15T19:12:58.673Z,50.33
2023-02-15T19:15:30.425Z,51.33
2023-02-15T19:17:57.801Z,51.72
2023-02-15T19:20:31.171Z,49.10
2023-02-15T19:23:01.444Z,49.33
2023-02-15T19:25:32.119Z,47.53
2023-02-15T19:27:59.494Z,51.40
2023-02-15T19:30:31.671Z,48.70
2023-02-15T19:32:59.956Z,52.70
2023-02-15T19:35:32.081Z,48.43
2023-02-15T19:38:02.640Z,52.95
2023-02-15T19:40:32.780Z,51.23
2023-02-15T19:43:00.141Z,50.75
2023-02-15T19:45:32.083Z,47.08
2023-02-15T19:48:01.375Z,50.03
2023-02-15T19:50:31.315Z,47.92
2023-02-15T19:52:58.946Z,46.77
2023-02-15T19:55:35.022Z,53.42
2023-02-15T19:58:10.948Z,51.25
2023-02-15T20:00:38.143Z,51.17
2023-02-15T20:03:05.917Z,50.83
2023-02-15T20:05:38.209Z,47.35
2023-02-15T20:08:09.900Z,49.45
2023-02-15T20:10:37.136Z,47.77
2023-02-15T20:13:04.273Z,43.65
2023-02-15T20:15:35.742Z,49.25
2023-02-15T20:18:04.014Z,49.58
2023-02-15T20:20:40.254Z,48.53
2023-02-15T20:23:17.749Z,51.03
2023-02-15T20:25:45.016Z,45.90
2023-02-15T20:28:20.686Z,47.83
2023-02-15T20:30:49.084Z,46.47
2023-02-15T20:33:17.489Z,46.80
2023-02-15T20:35:45.871Z,52.80
2023-02-15T20:38:24.691Z,45.97
2023-02-15T20:41:11.045Z,48.30
2023-02-15T20:43:39.659Z,48.50
2023-02-15T20:46:07.648Z,49.28
2023-02-15T20:48:35.412Z,51.97
2023-02-15T20:51:03.645Z,48.85
2023-02-15T20:53:31.045Z,50.28
2023-02-15T20:55:58.250Z,51.60
2023-02-15T20:58:28.461Z,48.17
2023-02-15T21:00:57.890Z,47.35
2023-02-15T21:03:30.239Z,47.80
2023-02-15T21:05:58.957Z,49.45
2023-02-15T21:08:27.092Z,47.28
2023-02-15T21:10:54.605Z,48.47
2023-02-15T21:13:29.543Z,48.72
2023-02-15T21:15:57.713Z,48.05
2023-02-15T21:18:30.779Z,46.20
2023-02-15T21:21:00.773Z,47.08
2023-02-15T21:23:38.424Z,50.17
2023-02-15T21:26:06.048Z,49.58
2023-02-15T21:28:33.315Z,47.65
2023-02-15T21:31:00.612Z,50.50
2023-02-15T21:33:27.879Z,49.22
2023-02-15T21:35:57.634Z,47.22
2023-02-15T21:38:29.104Z,52.27
2023-02-15T21:41:16.437Z,50.73
2023-02-15T21:44:02.267Z,46.40
2023-02-15T21:46:48.196Z,50.55
2023-02-15T21:49:16.026Z,48.75
2023-02-15T21:52:01.655Z,50.57
2023-02-15T21:54:28.875Z,49.78
2023-02-15T21:56:57.013Z,49.70
2023-02-15T21:59:27.026Z,50.25
2023-02-15T22:01:54.374Z,50.45
2023-02-15T22:04:29.958Z,51.50
2023-02-15T22:06:57.265Z,48.65
2023-02-15T22:09:27.150Z,48.08
2023-02-15T22:11:55.046Z,50.60
2023-02-15T22:14:31.083Z,52.10
2023-02-15T22:16:58.286Z,51.42
2023-02-15T22:19:25.493Z,53.43
2023-02-15T22:21:52.680Z,49.45
2023-02-15T22:24:19.918Z,49.83
2023-02-15T22:26:47.181Z,51.78
2023-02-15T22:29:17.392Z,48.65
2023-02-15T22:31:45.228Z,51.10
2023-02-15T22:34:27.736Z,52.00
2023-02-15T22:36:55.918Z,49.72
2023-02-15T22:39:24.654Z,50.33
2023-02-15T22:41:53.076Z,49.30
2023-02-15T22:44:29.209Z,50.22
2023-02-15T22:46:56.818Z,48.50
2023-02-15T22:49:24.027Z,50.23
2023-02-15T22:51:51.701Z,51.40
2023-02-15T22:54:19.753Z,49.00
2023-02-15T22:56:52.511Z,52.40
2023-02-15T22:59:21.599Z,47.75
2023-02-15T23:01:49.178Z,46.93
2023-02-15T23:04:23.990Z,48.05
2023-02-15T23:06:53.223Z,52.40
2023-02-15T23:09:20.887Z,50.97
2023-02-15T23:11:50.316Z,53.22
2023-02-15T23:14:32.356Z,51.97
2023-02-15T23:16:59.509Z,51.15
2023-02-15T23:19:27.528Z,51.40
2023-02-15T23:21:54.734Z,53.07
2023-02-15T23:24:26.827Z,53.53
2023-02-15T23:26:54.141Z,53.03
2023-02-15T23:29:23.551Z,54.63
2023-02-15T23:31:53.259Z,56.30
2023-02-15T23:34:26.948Z,59.97
2023-02-15T23:36:54.547Z,58.03
2023-02-15T23:39:45.725Z,57.08
2023-02-15T23:42:27.917Z,59.43
2023-02-15T23:44:55.904Z,57.55
2023-02-15T23:47:47.831Z,59.53
2023-02-15T23:50:21.238Z,63.33
2023-02-15T23:52:50.550Z,65.63
2023-02-15T23:55:18.409Z,62.72
2023-02-15T23:57:46.239Z,65.85
